Time;durP1;ratioP1;P1;durP2;ratioP2;P2;SDS_P1;SDS_P2;PMS_P1;PMS_P2;Temp;Humidity;BMP_temperature;BMP_pressure;BME280_temperature;BME280_humidity;BME280_pressure;Samples;Min_cycle;Max_cycle;Signal;HPM_P1;HPM_P2
2023/04/17 00:00:19;;;;;;;7.43;2.78;;;13.30;99.90;;;;;;5035201;28;20416;-71
2023/04/17 00:02:46;;;;;;;8.05;3.20;;;13.30;99.90;;;;;;5035250;28;20047;-71
2023/04/17 00:05:15;;;;;;;6.90;3.05;;;13.30;99.90;;;;;;5052563;28;20094;-72
2023/04/17 00:07:42;;;;;;;10.20;1.90;;;13.30;99.90;;;;;;4703519;28;10000977;-73
2023/04/17 00:10:09;;;;;;;4.25;1.75;;;13.20;99.90;;;;;;5049599;28;20048;-72
2023/04/17 00:12:36;;;;;;;5.47;2.00;;;13.20;99.90;;;;;;5049442;28;20127;-72
2023/04/17 00:15:04;;;;;;;6.65;1.98;;;13.20;99.90;;;;;;5050486;28;20052;-73
2023/04/17 00:17:30;;;;;;;7.97;2.50;;;13.20;99.90;;;;;;5050326;28;20041;-72
2023/04/17 00:19:57;;;;;;;8.35;2.35;;;13.20;99.90;;;;;;5050490;28;20106;-71
2023/04/17 00:22:24;;;;;;;4.15;1.90;;;13.20;99.90;;;;;;5032118;28;20231;-72
2023/04/17 00:24:51;;;;;;;7.32;2.30;;;13.20;99.90;;;;;;5050117;28;20140;-72
2023/04/17 00:27:17;;;;;;;4.30;1.77;;;13.20;99.90;;;;;;5032469;28;20073;-71
2023/04/17 00:29:44;;;;;;;8.50;2.22;;;13.20;99.90;;;;;;5049975;28;20128;-72
2023/04/17 00:32:11;;;;;;;4.45;2.50;;;13.20;99.90;;;;;;5050023;28;20064;-72
2023/04/17 00:34:39;;;;;;;3.88;2.40;;;13.20;99.90;;;;;;5053564;28;20053;-72
2023/04/17 00:37:06;;;;;;;5.53;2.53;;;13.20;99.90;;;;;;5050587;28;20083;-72
2023/04/17 00:39:32;;;;;;;5.95;1.85;;;13.20;99.90;;;;;;5049779;28;20041;-72
2023/04/17 00:41:59;;;;;;;6.07;2.20;;;13.20;99.90;;;;;;5031764;28;20534;-72
2023/04/17 00:44:26;;;;;;;6.45;2.35;;;13.10;99.90;;;;;;5050289;28;20120;-73
2023/04/17 00:46:53;;;;;;;7.05;2.30;;;13.10;99.90;;;;;;5048973;28;20045;-71
2023/04/17 00:49:19;;;;;;;8.77;2.08;;;13.10;99.90;;;;;;5031566;28;20041;-72
2023/04/17 00:51:46;;;;;;;8.48;2.30;;;13.10;99.90;;;;;;5049426;28;20048;-72
2023/04/17 00:54:13;;;;;;;8.05;1.88;;;13.10;99.90;;;;;;5049348;28;20053;-72
2023/04/17 00:56:41;;;;;;;4.25;2.30;;;13.10;99.90;;;;;;5049171;28;20083;-72
2023/04/17 00:59:12;;;;;;;8.25;2.30;;;13.10;99.90;;;;;;5031979;28;20166;-72
2023/04/17 01:01:39;;;;;;;7.40;2.55;;;13.10;99.90;;;;;;5014025;28;20123;-71
2023/04/17 01:04:08;;;;;;;5.70;2.20;;;13.10;99.90;;;;;;5048901;28;20040;-71
2023/04/17 01:06:35;;;;;;;7.95;2.30;;;13.10;99.90;;;;;;5031233;28;20131;-72
2023/04/17 01:09:03;;;;;;;4.88;2.45;;;13.00;99.90;;;;;;5031042;28;20084;-71
2023/04/17 01:11:29;;;;;;;5.40;3.67;;;13.00;99.90;;;;;;5048734;28;20103;-72
2023/04/17 01:13:56;;;;;;;7.65;3.10;;;13.00;99.90;;;;;;5049399;28;20077;-72
2023/04/17 01:16:23;;;;;;;15.65;5.95;;;13.00;99.90;;;;;;5049412;28;20111;-72
2023/04/17 01:18:50;;;;;;;16.40;8.80;;;13.00;99.90;;;;;;5049086;28;20052;-71
2023/04/17 01:21:16;;;;;;;16.48;8.32;;;12.90;99.90;;;;;;5031776;28;20044;-71
2023/04/17 01:23:50;;;;;;;14.07;8.75;;;12.90;99.90;;;;;;5048568;28;20467;-72
2023/04/17 01:26:21;;;;;;;23.92;10.43;;;12.90;99.90;;;;;;5031859;28;20111;-72
2023/04/17 01:28:58;;;;;;;19.58;9.70;;;12.90;99.90;;;;;;5049001;28;20053;-71
2023/04/17 01:31:26;;;;;;;18.70;10.30;;;13.00;99.90;;;;;;5049603;28;20133;-72
2023/04/17 01:33:53;;;;;;;25.23;11.10;;;12.90;99.90;;;;;;5030893;28;20492;-72
2023/04/17 01:36:20;;;;;;;19.27;10.05;;;12.90;99.90;;;;;;5031743;28;20053;-71
2023/04/17 01:38:47;;;;;;;21.95;11.00;;;12.80;99.90;;;;;;5048866;28;20140;-70
2023/04/17 01:41:13;;;;;;;18.55;10.57;;;12.80;99.90;;;;;;5049321;28;20077;-71
2023/04/17 01:43:42;;;;;;;21.85;12.25;;;12.80;99.90;;;;;;5048423;28;20045;-72
2023/04/17 01:46:09;;;;;;;19.88;11.70;;;12.80;99.90;;;;;;5048633;28;20045;-71
2023/04/17 01:48:36;;;;;;;23.77;11.77;;;12.80;99.90;;;;;;5033409;28;20048;-72
2023/04/17 01:51:03;;;;;;;22.80;12.57;;;12.80;99.90;;;;;;5068264;28;20244;-72
2023/04/17 01:53:30;;;;;;;22.27;11.90;;;12.70;99.90;;;;;;5054167;28;20080;-72
2023/04/17 01:55:56;;;;;;;28.98;14.23;;;12.70;99.90;;;;;;5052588;28;20091;-71
2023/04/17 01:58:23;;;;;;;19.15;13.07;;;12.80;99.90;;;;;;5052547;28;20060;-71
2023/04/17 02:00:50;;;;;;;23.10;12.05;;;12.70;99.90;;;;;;5052935;28;20057;-72
2023/04/17 02:03:17;;;;;;;25.83;13.60;;;12.70;99.90;;;;;;5052840;28;20087;-72
2023/04/17 02:05:46;;;;;;;26.05;13.20;;;12.70;99.90;;;;;;5052348;28;20056;-72
2023/04/17 02:08:13;;;;;;;22.08;13.35;;;12.70;99.90;;;;;;5035166;28;20049;-72
2023/04/17 02:10:40;;;;;;;26.77;15.15;;;12.70;99.90;;;;;;5052324;28;20047;-72
2023/04/17 02:13:08;;;;;;;19.60;13.15;;;12.70;99.90;;;;;;5052529;28;20079;-72
2023/04/17 02:15:37;;;;;;;22.25;13.75;;;12.70;99.90;;;;;;5051797;28;20530;-72
2023/04/17 02:18:08;;;;;;;25.80;14.25;;;12.70;99.90;;;;;;5035954;28;20048;-72
2023/04/17 02:20:35;;;;;;;19.55;13.00;;;12.60;99.90;;;;;;5052376;28;20087;-72
2023/04/17 02:23:03;;;;;;;28.67;14.20;;;12.60;99.90;;;;;;5052420;28;20045;-72
2023/04/17 02:25:30;;;;;;;24.27;14.65;;;12.60;99.90;;;;;;5034601;28;20072;-72
2023/04/17 02:27:57;;;;;;;23.80;14.38;;;12.50;99.90;;;;;;5034337;28;20044;-72
2023/04/17 02:30:24;;;;;;;24.20;15.55;;;12.50;99.90;;;;;;5033955;28;20094;-72
2023/04/17 02:32:51;;;;;;;28.00;15.35;;;12.50;99.90;;;;;;5052325;28;20141;-71
2023/04/17 02:35:19;;;;;;;23.60;15.20;;;12.50;99.90;;;;;;5051840;28;20128;-72
2023/04/17 02:37:46;;;;;;;21.45;12.57;;;12.50;99.90;;;;;;5051981;28;20068;-71
2023/04/17 02:40:14;;;;;;;24.13;14.70;;;12.50;99.90;;;;;;5052311;28;20148;-72
2023/04/17 02:42:40;;;;;;;22.17;14.10;;;12.50;99.90;;;;;;5051977;28;20041;-71
2023/04/17 02:45:07;;;;;;;24.80;14.68;;;12.40;99.90;;;;;;5051810;28;20053;-71
2023/04/17 02:47:35;;;;;;;27.90;15.48;;;12.40;99.90;;;;;;5034061;28;20053;-71
2023/04/17 02:50:02;;;;;;;26.17;14.13;;;12.40;99.90;;;;;;5051383;28;20556;-72
2023/04/17 02:52:29;;;;;;;24.80;14.88;;;12.30;99.90;;;;;;5017651;28;20045;-72
2023/04/17 02:54:56;;;;;;;22.38;14.77;;;12.40;99.90;;;;;;5033796;28;20053;-71
2023/04/17 02:57:23;;;;;;;26.42;13.40;;;12.30;99.90;;;;;;5051076;28;20044;-68
2023/04/17 02:59:50;;;;;;;26.45;15.63;;;12.30;99.90;;;;;;5051348;28;20114;-71
2023/04/17 03:02:20;;;;;;;26.77;15.80;;;12.30;99.90;;;;;;5052052;28;20037;-71
2023/04/17 03:04:49;;;;;;;22.90;14.27;;;12.20;99.90;;;;;;5053332;28;20140;-69
2023/04/17 03:07:22;;;;;;;30.05;14.93;;;12.20;99.90;;;;;;5050897;28;20102;-72
2023/04/17 03:09:49;;;;;;;24.83;14.53;;;12.10;99.90;;;;;;5033928;28;20048;-71
2023/04/17 03:12:16;;;;;;;26.25;15.13;;;12.10;99.90;;;;;;5050854;28;20139;-71
2023/04/17 03:14:42;;;;;;;28.70;15.25;;;12.10;99.90;;;;;;5016972;28;20136;-71
2023/04/17 03:17:10;;;;;;;30.13;17.85;;;12.00;99.90;;;;;;5050806;28;20049;-70
2023/04/17 03:19:37;;;;;;;24.35;16.17;;;12.00;99.90;;;;;;5050901;28;20158;-71
2023/04/17 03:22:04;;;;;;;31.45;16.00;;;12.00;99.90;;;;;;5032521;28;20538;-71
2023/04/17 03:24:30;;;;;;;32.83;16.33;;;12.00;99.90;;;;;;5050456;28;20626;-71
2023/04/17 03:26:58;;;;;;;30.25;16.65;;;12.00;99.90;;;;;;5049899;28;20053;-73
2023/04/17 03:29:24;;;;;;;30.10;18.00;;;12.00;99.90;;;;;;5049601;28;20737;-72
2023/04/17 03:31:51;;;;;;;25.77;16.23;;;11.90;99.90;;;;;;5033289;28;20053;-71
2023/04/17 03:34:20;;;;;;;29.60;16.70;;;11.90;99.90;;;;;;5049999;28;20708;-70
2023/04/17 03:36:47;;;;;;;29.67;16.08;;;11.90;99.90;;;;;;5050174;28;20047;-70
2023/04/17 03:39:14;;;;;;;28.38;16.52;;;11.90;99.90;;;;;;5050104;28;20051;-70
2023/04/17 03:41:41;;;;;;;22.05;15.75;;;11.90;99.90;;;;;;5050272;28;20081;-71
2023/04/17 03:44:08;;;;;;;28.13;16.23;;;11.80;99.90;;;;;;5032441;28;20068;-71
2023/04/17 03:46:37;;;;;;;28.73;16.30;;;11.70;99.90;;;;;;5049845;28;20135;-71
2023/04/17 03:49:04;;;;;;;32.78;17.80;;;11.70;99.90;;;;;;5032580;28;20143;-70
2023/04/17 03:51:30;;;;;;;28.17;16.05;;;11.70;99.90;;;;;;5049886;28;20068;-70
2023/04/17 03:53:57;;;;;;;30.35;17.95;;;11.70;99.90;;;;;;5049887;28;20041;-70
2023/04/17 03:56:24;;;;;;;24.42;16.08;;;11.70;99.90;;;;;;5050704;28;20042;-71
2023/04/17 03:58:51;;;;;;;32.50;19.88;;;11.80;99.90;;;;;;5049743;28;20119;-71
2023/04/17 04:01:18;;;;;;;33.58;19.33;;;11.70;99.90;;;;;;5032502;28;20072;-71
2023/04/17 04:03:45;;;;;;;31.80;18.15;;;11.60;99.90;;;;;;5048430;28;20581;-71
2023/04/17 04:06:12;;;;;;;30.20;18.48;;;11.50;99.90;;;;;;5016025;28;20045;-71
2023/04/17 04:08:39;;;;;;;30.13;17.95;;;11.50;99.90;;;;;;5064665;28;20143;-71
2023/04/17 04:11:06;;;;;;;31.40;19.80;;;11.50;99.90;;;;;;5048922;28;20103;-71
2023/04/17 04:13:33;;;;;;;29.20;20.80;;;11.60;99.90;;;;;;5032175;28;20056;-71
2023/04/17 04:15:59;;;;;;;30.45;17.52;;;11.60;99.90;;;;;;5049286;28;20041;-71
2023/04/17 04:18:26;;;;;;;32.85;20.23;;;11.50;99.90;;;;;;5049251;28;20057;-71
2023/04/17 04:20:53;;;;;;;29.23;19.23;;;11.50;99.90;;;;;;5031430;28;20512;-71
2023/04/17 04:23:20;;;;;;;28.52;20.48;;;11.50;99.90;;;;;;5032014;28;20136;-73
2023/04/17 04:25:48;;;;;;;32.35;20.00;;;11.40;99.90;;;;;;5049384;28;20045;-70
2023/04/17 04:28:16;;;;;;;29.85;19.92;;;11.40;99.90;;;;;;5048969;28;20041;-70
2023/04/17 04:30:49;;;;;;;31.95;20.05;;;11.40;99.90;;;;;;5031424;28;20551;-71
2023/04/17 04:33:19;;;;;;;31.90;20.48;;;11.50;99.90;;;;;;5048982;28;20052;-70
2023/04/17 04:35:46;;;;;;;27.80;18.80;;;11.50;99.90;;;;;;5049146;28;20407;-70
2023/04/17 04:38:14;;;;;;;30.58;18.20;;;11.50;99.90;;;;;;5048277;28;20573;-71
2023/04/17 04:40:42;;;;;;;27.73;19.27;;;11.50;99.90;;;;;;5049533;28;20041;-72
2023/04/17 04:43:09;;;;;;;25.77;20.13;;;11.50;99.90;;;;;;5049462;28;20825;-71
2023/04/17 04:45:36;;;;;;;38.35;20.63;;;11.50;99.90;;;;;;5048650;28;20503;-71
2023/04/17 04:48:03;;;;;;;31.30;20.75;;;11.40;99.90;;;;;;5049246;28;20053;-71
2023/04/17 04:50:30;;;;;;;30.33;19.35;;;11.40;99.90;;;;;;5031058;28;20033;-71
2023/04/17 04:52:56;;;;;;;34.75;19.38;;;11.30;99.90;;;;;;5031635;28;20128;-70
2023/04/17 04:55:25;;;;;;;32.55;20.48;;;11.40;99.90;;;;;;5048642;28;20067;-71
2023/04/17 04:57:53;;;;;;;35.60;20.48;;;11.30;99.90;;;;;;5048684;28;20054;-70
2023/04/17 05:00:20;;;;;;;31.08;20.25;;;11.30;99.90;;;;;;5047750;28;20459;-70
2023/04/17 05:02:47;;;;;;;32.40;18.73;;;11.30;99.90;;;;;;5048193;28;20076;-70
2023/04/17 05:05:14;;;;;;;37.28;20.98;;;11.30;99.90;;;;;;5048313;28;20075;-69
2023/04/17 05:07:41;;;;;;;34.28;21.05;;;11.30;99.90;;;;;;5048009;28;20059;-70
2023/04/17 05:10:08;;;;;;;35.20;20.38;;;11.20;99.90;;;;;;5049063;28;20037;-70
2023/04/17 05:12:35;;;;;;;32.50;23.00;;;11.20;99.90;;;;;;5048170;28;20149;-71
2023/04/17 05:15:02;;;;;;;34.25;20.55;;;11.20;99.90;;;;;;5048124;28;20056;-69
2023/04/17 05:17:29;;;;;;;34.25;22.23;;;11.30;99.90;;;;;;5048156;28;20069;-70
2023/04/17 05:19:55;;;;;;;30.83;19.50;;;11.30;99.90;;;;;;5048381;28;20045;-70
2023/04/17 05:22:22;;;;;;;40.08;23.10;;;11.30;99.90;;;;;;5049634;28;20075;-69
2023/04/17 05:24:49;;;;;;;36.72;20.88;;;11.30;99.90;;;;;;5056620;28;20090;-69
2023/04/17 05:27:16;;;;;;;30.60;21.42;;;11.30;99.90;;;;;;5052703;28;20052;-70
2023/04/17 05:29:43;;;;;;;33.60;21.15;;;11.30;99.90;;;;;;5036827;28;20507;-68
2023/04/17 05:32:10;;;;;;;30.17;21.45;;;11.30;99.90;;;;;;5053577;28;20048;-69
2023/04/17 05:34:37;;;;;;;33.95;20.33;;;11.30;99.90;;;;;;5034936;28;20412;-70
2023/04/17 05:37:03;;;;;;;32.30;20.98;;;11.30;99.90;;;;;;5051405;28;20052;-70
2023/04/17 05:39:30;;;;;;;37.80;20.23;;;11.30;99.90;;;;;;5034287;28;20132;-70
2023/04/17 05:41:57;;;;;;;28.90;19.40;;;11.30;99.90;;;;;;5051318;28;20136;-71
2023/04/17 05:44:24;;;;;;;33.78;19.02;;;11.20;99.90;;;;;;5051187;28;20052;-70
2023/04/17 05:46:50;;;;;;;35.85;22.00;;;11.30;99.90;;;;;;5051056;28;20510;-70
2023/04/17 05:49:17;;;;;;;33.83;21.88;;;11.20;99.90;;;;;;5033736;28;20052;-70
2023/04/17 05:51:44;;;;;;;31.67;22.90;;;11.30;99.90;;;;;;5033717;28;20071;-69
2023/04/17 05:54:11;;;;;;;34.08;23.15;;;11.30;99.90;;;;;;5051252;28;20053;-70
2023/04/17 05:56:38;;;;;;;35.20;20.77;;;11.30;99.90;;;;;;5050874;28;20129;-71
2023/04/17 05:59:05;;;;;;;32.70;20.73;;;11.30;99.90;;;;;;5051321;28;20064;-70
2023/04/17 06:01:32;;;;;;;40.97;22.23;;;11.40;99.90;;;;;;5039828;28;20059;-70
2023/04/17 06:03:58;;;;;;;32.20;22.50;;;11.40;99.90;;;;;;5017284;28;20087;-72
2023/04/17 06:06:27;;;;;;;39.67;23.45;;;11.50;99.90;;;;;;5050842;28;20526;-71
2023/04/17 06:08:54;;;;;;;33.85;20.90;;;11.40;99.90;;;;;;5033495;28;20060;-70
2023/04/17 06:11:21;;;;;;;36.97;22.55;;;11.50;99.90;;;;;;5033084;28;20512;-71
2023/04/17 06:13:48;;;;;;;40.15;21.13;;;11.50;99.90;;;;;;5033662;28;20071;-68
2023/04/17 06:16:15;;;;;;;35.75;22.30;;;11.50;99.90;;;;;;5044979;28;20048;-70
2023/04/17 06:18:42;;;;;;;34.22;22.00;;;11.60;99.90;;;;;;5032236;28;20041;-69
2023/04/17 06:21:09;;;;;;;34.85;21.42;;;11.60;99.90;;;;;;5050874;28;20581;-68
2023/04/17 06:23:36;;;;;;;38.55;21.23;;;11.60;99.90;;;;;;5029610;28;20037;-70
2023/04/17 06:26:02;;;;;;;32.80;22.23;;;11.60;99.90;;;;;;5051861;28;20052;-70
2023/04/17 06:28:29;;;;;;;39.22;21.48;;;11.70;99.90;;;;;;5051145;28;20049;-71
2023/04/17 06:30:56;;;;;;;33.28;21.85;;;11.70;99.90;;;;;;5033811;28;20052;-68
2023/04/17 06:33:23;;;;;;;34.97;23.25;;;11.80;99.90;;;;;;5050922;28;20056;-68
2023/04/17 06:35:52;;;;;;;32.95;20.80;;;11.90;99.90;;;;;;5034001;28;20129;-69
2023/04/17 06:38:19;;;;;;;35.08;20.52;;;11.90;99.90;;;;;;5051213;28;20044;-69
2023/04/17 06:40:46;;;;;;;36.83;21.63;;;11.90;99.90;;;;;;5032917;28;20098;-69
2023/04/17 06:43:16;;;;;;;31.45;21.42;;;11.90;99.90;;;;;;5049812;28;20051;-68
2023/04/17 06:45:43;;;;;;;44.45;24.70;;;11.90;99.90;;;;;;5031995;28;20079;-70
2023/04/17 06:48:10;;;;;;;37.78;23.35;;;11.90;99.90;;;;;;5049851;28;20048;-65
2023/04/17 06:50:37;;;;;;;33.28;21.33;;;11.80;99.90;;;;;;5049747;28;20137;-70
2023/04/17 06:53:04;;;;;;;38.50;21.75;;;11.80;99.90;;;;;;5048248;28;20041;-72
2023/04/17 06:55:31;;;;;;;34.03;22.25;;;11.70;99.90;;;;;;5048426;28;20205;-67
2023/04/17 06:57:58;;;;;;;34.90;20.98;;;11.60;99.90;;;;;;5030354;28;20048;-71
2023/04/17 07:00:25;;;;;;;38.80;22.55;;;11.50;99.90;;;;;;5030101;28;20529;-69
2023/04/17 07:02:51;;;;;;;43.72;23.48;;;11.50;99.90;;;;;;5048030;28;20084;-69
2023/04/17 07:05:18;;;;;;;33.67;21.70;;;11.50;99.90;;;;;;5046476;28;20037;-67
2023/04/17 07:07:46;;;;;;;36.78;21.92;;;11.60;99.90;;;;;;5049227;28;20048;-68
2023/04/17 07:10:14;;;;;;;34.85;21.40;;;11.60;99.90;;;;;;5048547;28;20045;-65
2023/04/17 07:12:41;;;;;;;32.85;20.60;;;11.60;99.90;;;;;;5031643;28;20083;-67
2023/04/17 07:15:08;;;;;;;38.72;23.42;;;11.60;99.90;;;;;;5049087;28;20491;-68
2023/04/17 07:17:35;;;;;;;44.95;23.70;;;11.70;99.90;;;;;;5031890;28;20091;-67
2023/04/17 07:20:06;;;;;;;33.80;21.48;;;11.80;99.90;;;;;;5031593;28;20052;-68
2023/04/17 07:22:35;;;;;;;31.27;21.77;;;11.90;99.90;;;;;;5049763;28;20087;-69
2023/04/17 07:25:03;;;;;;;35.38;22.33;;;12.00;99.90;;;;;;5031992;28;20052;-68
2023/04/17 07:27:30;;;;;;;47.13;22.48;;;12.00;99.90;;;;;;5048277;28;20171;-68
2023/04/17 07:29:57;;;;;;;36.65;21.85;;;12.10;99.90;;;;;;5048625;28;20051;-73
2023/04/17 07:32:23;;;;;;;32.85;20.15;;;12.10;99.90;;;;;;5029957;28;20534;-67
2023/04/17 07:34:50;;;;;;;35.25;20.42;;;12.00;99.90;;;;;;5050565;28;20495;-68
2023/04/17 07:37:17;;;;;;;35.05;20.20;;;12.00;99.90;;;;;;5050629;28;20103;-68
2023/04/17 07:39:46;;;;;;;30.98;19.50;;;12.00;99.90;;;;;;5033085;28;20490;-68
2023/04/17 07:42:15;;;;;;;26.88;18.38;;;12.10;99.90;;;;;;5050857;28;20048;-68
2023/04/17 07:44:42;;;;;;;31.25;17.35;;;12.10;99.90;;;;;;5051359;28;20044;-68
2023/04/17 07:47:08;;;;;;;24.48;14.75;;;12.10;99.90;;;;;;5032948;28;20109;-67
2023/04/17 07:49:35;;;;;;;20.50;12.13;;;12.20;99.90;;;;;;5049835;28;20560;-69
2023/04/17 07:52:02;;;;;;;16.77;10.02;;;12.30;99.90;;;;;;5050809;28;20063;-68
2023/04/17 07:54:30;;;;;;;24.20;9.82;;;12.40;99.90;;;;;;5051212;28;20052;-68
2023/04/17 07:57:01;;;;;;;10.98;7.82;;;12.40;99.90;;;;;;5050731;28;20041;-68
2023/04/17 07:59:29;;;;;;;19.15;8.77;;;12.50;99.90;;;;;;5022519;28;20049;-67
2023/04/17 08:01:56;;;;;;;20.08;7.35;;;12.50;99.90;;;;;;5029833;28;20076;-67
2023/04/17 08:04:24;;;;;;;23.13;8.85;;;12.60;99.90;;;;;;5031106;28;20045;-68
2023/04/17 08:06:51;;;;;;;27.92;8.75;;;12.70;99.90;;;;;;5047618;28;20106;-68
2023/04/17 08:09:20;;;;;;;16.58;6.97;;;12.80;99.90;;;;;;5049445;28;20160;-69
2023/04/17 08:11:46;;;;;;;8.32;5.18;;;12.80;99.90;;;;;;5049652;28;20789;-69
2023/04/17 08:14:23;;;;;;;15.80;6.47;;;12.90;99.90;;;;;;5050087;28;20110;-67
2023/04/17 08:16:51;;;;;;;14.82;7.18;;;12.90;99.90;;;;;;5031191;28;20099;-68
2023/04/17 08:19:18;;;;;;;18.58;5.55;;;13.00;99.90;;;;;;5048789;28;20131;-69
2023/04/17 08:21:48;;;;;;;16.63;5.63;;;13.20;99.90;;;;;;5015080;28;20045;-75
2023/04/17 08:24:15;;;;;;;16.35;5.20;;;13.20;99.90;;;;;;5030935;28;20057;-68
2023/04/17 08:26:45;;;;;;;8.38;3.78;;;13.20;99.90;;;;;;5031969;28;20045;-69
2023/04/17 08:29:12;;;;;;;25.15;6.25;;;13.10;99.90;;;;;;5049178;28;20053;-68
2023/04/17 08:31:40;;;;;;;11.88;4.88;;;13.10;99.90;;;;;;5050990;28;20142;-68
2023/04/17 08:34:06;;;;;;;22.15;5.65;;;13.10;99.90;;;;;;5031475;28;20049;-68
2023/04/17 08:36:40;;;;;;;;;;;13.10;99.90;;;;;;5049306;28;20072;-67
2023/04/17 08:39:08;;;;;;;11.65;3.88;;;13.10;99.90;;;;;;5048221;28;20260;-67
2023/04/17 08:41:42;;;;;;;13.15;4.88;;;13.20;99.90;;;;;;5030984;28;20049;-69
2023/04/17 08:44:09;;;;;;;11.93;4.50;;;13.20;99.90;;;;;;5015113;28;20053;-69
2023/04/17 08:46:36;;;;;;;11.45;4.63;;;13.10;99.90;;;;;;5048328;28;20500;-68
2023/04/17 08:49:03;;;;;;;12.15;4.80;;;13.20;99.90;;;;;;4977706;28;20579;-67
2023/04/17 08:51:31;;;;;;;12.73;4.15;;;13.30;99.90;;;;;;4967718;28;20407;-69
2023/04/17 08:53:58;;;;;;;10.23;4.55;;;13.30;99.90;;;;;;5009180;28;20048;-70
2023/04/17 08:56:25;;;;;;;12.25;5.07;;;13.30;99.90;;;;;;5023098;28;20055;-69
2023/04/17 08:58:52;;;;;;;13.32;4.68;;;13.50;99.90;;;;;;5010135;28;20049;-67
2023/04/17 09:01:19;;;;;;;13.32;4.95;;;13.60;99.90;;;;;;5028260;28;20096;-69
2023/04/17 09:03:47;;;;;;;21.17;5.03;;;13.70;99.90;;;;;;5009288;28;20052;-70
2023/04/17 09:06:14;;;;;;;13.35;4.88;;;13.80;99.90;;;;;;4993079;28;20412;-69
2023/04/17 09:08:56;;;;;;;16.85;5.78;;;14.00;99.90;;;;;;5010535;28;20096;-70
2023/04/17 09:11:23;;;;;;;12.70;5.10;;;14.10;99.90;;;;;;5027228;28;20056;-70
2023/04/17 09:13:50;;;;;;;14.40;5.13;;;14.20;99.90;;;;;;5027859;28;20057;-70
2023/04/17 09:16:20;;;;;;;22.05;6.03;;;14.20;99.90;;;;;;5004262;28;20042;-70
2023/04/17 09:18:47;;;;;;;11.68;5.18;;;14.20;99.90;;;;;;5006723;28;20404;-70
2023/04/17 09:21:16;;;;;;;17.33;5.13;;;14.20;99.90;;;;;;5028365;28;20037;-70
2023/04/17 09:23:54;;;;;;;12.20;5.00;;;14.20;99.90;;;;;;5004989;28;20124;-70
2023/04/17 09:26:22;;;;;;;9.75;5.43;;;14.30;99.90;;;;;;5005341;28;20397;-68
2023/04/17 09:29:13;;;;;;;10.13;5.25;;;14.40;99.90;;;;;;5010620;28;20087;-69
2023/04/17 09:31:41;;;;;;;13.68;4.70;;;14.50;99.90;;;;;;5009774;28;20488;-69
2023/04/17 09:34:12;;;;;;;17.90;5.90;;;14.60;99.90;;;;;;5014464;28;20469;-71
2023/04/17 09:36:40;;;;;;;15.27;6.00;;;14.70;99.90;;;;;;4998419;28;20051;-71
2023/04/17 09:39:19;;;;;;;13.75;5.63;;;15.00;99.90;;;;;;5005559;28;20041;-70
2023/04/17 09:41:46;;;;;;;16.27;6.10;;;15.20;99.90;;;;;;5009760;28;20057;-71
2023/04/17 09:44:26;;;;;;;22.55;6.03;;;15.40;99.90;;;;;;4993740;28;20455;-71
2023/04/17 09:46:54;;;;;;;15.95;5.75;;;15.80;99.90;;;;;;4998002;28;20050;-70
2023/04/17 09:49:41;;;;;;;15.02;5.75;;;16.00;99.90;;;;;;5008753;28;20409;-73
2023/04/17 09:52:08;;;;;;;17.75;4.45;;;16.00;99.90;;;;;;5027605;28;20077;-71
2023/04/17 09:54:36;;;;;;;13.13;4.22;;;16.00;99.90;;;;;;5027781;28;20527;-71
2023/04/17 09:57:07;;;;;;;9.18;3.78;;;16.00;99.90;;;;;;5011154;28;20095;-71
2023/04/17 09:59:43;;;;;;;8.77;2.95;;;16.20;99.90;;;;;;5028350;28;20481;-71
2023/04/17 10:02:17;;;;;;;18.17;3.28;;;16.20;99.90;;;;;;5011058;28;20041;-72
2023/04/17 10:04:45;;;;;;;19.85;3.78;;;16.30;99.90;;;;;;5028411;28;20072;-70
2023/04/17 10:07:12;;;;;;;13.75;3.75;;;16.40;99.90;;;;;;5023502;28;20056;-71
2023/04/17 10:09:40;;;;;;;12.32;3.33;;;16.60;99.90;;;;;;4993978;28;20052;-70
2023/04/17 10:12:13;;;;;;;7.88;2.97;;;16.90;99.90;;;;;;5011942;28;20096;-72
2023/04/17 10:14:43;;;;;;;5.72;2.70;;;17.20;99.90;;;;;;5028110;28;20132;-71
2023/04/17 10:17:22;;;;;;;11.40;3.17;;;17.30;99.90;;;;;;5031340;28;20099;-70
2023/04/17 10:19:49;;;;;;;17.88;3.10;;;17.00;99.90;;;;;;5031454;28;20053;-69
2023/04/17 10:22:19;;;;;;;10.80;2.28;;;16.50;99.90;;;;;;5031373;28;20128;-71
2023/04/17 10:25:12;;;;;;;7.72;2.50;;;16.10;99.90;;;;;;5031380;28;20053;-70
2023/04/17 10:27:39;;;;;;;13.45;3.67;;;16.00;99.90;;;;;;5028015;28;20049;-70
2023/04/17 10:30:11;;;;;;;8.85;3.20;;;15.90;99.90;;;;;;5033345;28;20049;-69
2023/04/17 10:32:40;;;;;;;12.05;3.70;;;15.90;99.90;;;;;;5030935;28;20103;-70
2023/04/17 10:35:16;;;;;;;8.65;2.95;;;15.70;99.90;;;;;;5017267;28;20045;-70
2023/04/17 10:37:46;;;;;;;12.23;3.35;;;15.70;99.90;;;;;;5030817;28;20053;-71
2023/04/17 10:40:20;;;;;;;9.93;3.25;;;15.60;99.90;;;;;;5030916;28;20052;-71
2023/04/17 10:43:14;;;;;;;8.10;3.95;;;15.50;99.90;;;;;;5027956;28;20045;-70
2023/04/17 10:46:09;;;;;;;4.95;2.95;;;15.50;99.90;;;;;;5030803;28;20081;-70
2023/04/17 10:48:51;;;;;;;10.35;2.97;;;15.50;99.90;;;;;;5026477;28;20108;-69
2023/04/17 10:51:27;;;;;;;10.70;2.65;;;15.30;99.90;;;;;;5018936;28;20049;-69
2023/04/17 10:53:54;;;;;;;14.93;2.90;;;15.30;99.90;;;;;;5030764;28;20052;-69
2023/04/17 10:56:29;;;;;;;10.35;2.85;;;15.40;99.90;;;;;;5025459;28;20532;-69
2023/04/17 10:59:00;;;;;;;4.40;2.80;;;15.20;99.90;;;;;;5001217;28;20120;-71
2023/04/17 11:01:36;;;;;;;15.60;4.03;;;15.20;99.90;;;;;;5013471;28;20050;-70
2023/04/17 11:04:03;;;;;;;20.23;3.92;;;15.30;99.90;;;;;;5013047;28;20053;-69
2023/04/17 11:06:31;;;;;;;8.80;2.63;;;15.30;99.90;;;;;;5030331;28;20045;-69
2023/04/17 11:08:58;;;;;;;6.65;3.22;;;15.40;99.90;;;;;;5012418;28;20461;-69
2023/04/17 11:11:25;;;;;;;10.32;3.42;;;15.40;99.90;;;;;;5012533;28;20132;-69
2023/04/17 11:14:14;;;;;;;9.98;4.20;;;15.40;99.90;;;;;;5013779;28;20046;-69
2023/04/17 11:16:42;;;;;;;6.90;2.88;;;15.50;99.90;;;;;;5027821;28;20123;-70
2023/04/17 11:19:10;;;;;;;7.88;3.28;;;15.50;99.90;;;;;;5030569;28;20068;-69
2023/04/17 11:21:53;;;;;;;11.75;3.20;;;15.30;99.90;;;;;;5028811;28;20045;-69
2023/04/17 11:24:26;;;;;;;15.35;3.28;;;15.30;99.90;;;;;;5029154;28;20144;-70
2023/04/17 11:26:53;;;;;;;8.73;3.25;;;15.30;99.90;;;;;;5013650;28;20569;-70
2023/04/17 11:29:20;;;;;;;11.60;3.20;;;15.30;99.90;;;;;;4993272;28;20050;-71
2023/04/17 11:31:51;;;;;;;7.38;2.95;;;15.20;99.90;;;;;;5024697;28;20084;-70
2023/04/17 11:34:18;;;;;;;15.60;3.20;;;15.30;99.90;;;;;;5033175;28;20077;-69
2023/04/17 11:37:03;;;;;;;5.25;3.22;;;15.40;99.90;;;;;;5012599;28;20103;-71
2023/04/17 11:39:31;;;;;;;10.85;3.25;;;15.50;99.90;;;;;;5008730;28;20045;-69
2023/04/17 11:41:59;;;;;;;10.95;2.80;;;15.40;99.90;;;;;;5030929;28;20053;-70
2023/04/17 11:44:26;;;;;;;6.10;2.70;;;15.60;99.90;;;;;;5030384;28;20084;-69
2023/04/17 11:46:59;;;;;;;8.95;3.13;;;15.50;99.90;;;;;;5030709;28;20073;-69
2023/04/17 11:49:27;;;;;;;8.45;3.75;;;15.50;99.90;;;;;;5012581;28;20046;-68
2023/04/17 11:51:55;;;;;;;5.55;2.85;;;15.50;99.90;;;;;;5012777;28;20535;-70
2023/04/17 11:54:28;;;;;;;8.45;3.40;;;15.60;99.90;;;;;;5008060;28;20037;-69
2023/04/17 11:57:05;;;;;;;10.32;3.38;;;15.60;99.90;;;;;;5030184;28;20096;-69
2023/04/17 11:59:33;;;;;;;11.38;4.40;;;15.60;99.90;;;;;;5012580;28;20049;-70
2023/04/17 12:02:00;;;;;;;19.00;4.55;;;15.60;99.90;;;;;;5029839;28;20133;-69
2023/04/17 12:04:28;;;;;;;10.70;3.95;;;15.60;99.90;;;;;;5029842;28;20046;-69
2023/04/17 12:06:55;;;;;;;13.82;4.10;;;15.70;99.90;;;;;;5026280;28;20488;-71
2023/04/17 12:09:30;;;;;;;13.93;4.50;;;15.80;99.90;;;;;;5029623;28;20136;-70
2023/04/17 12:11:58;;;;;;;8.73;3.60;;;15.80;99.90;;;;;;5029565;28;20045;-69
2023/04/17 12:14:25;;;;;;;9.75;5.28;;;16.00;99.90;;;;;;5005972;28;20128;-69
2023/04/17 12:16:52;;;;;;;14.75;4.35;;;16.00;99.90;;;;;;5028443;28;20119;-69
2023/04/17 12:19:19;;;;;;;16.08;4.55;;;15.90;99.90;;;;;;5029567;28;20060;-70
2023/04/17 12:21:48;;;;;;;9.57;4.70;;;16.00;99.90;;;;;;5029517;28;20088;-69
2023/04/17 12:24:18;;;;;;;7.90;4.00;;;16.00;99.90;;;;;;5015842;28;20128;-69
2023/04/17 12:26:46;;;;;;;13.13;5.50;;;16.10;99.90;;;;;;5029125;28;20072;-70
2023/04/17 12:29:13;;;;;;;11.75;4.32;;;16.10;99.90;;;;;;5029205;28;20057;-70
2023/04/17 12:31:40;;;;;;;13.80;5.30;;;16.10;99.90;;;;;;5010625;28;20041;-69
2023/04/17 12:34:07;;;;;;;12.23;4.80;;;16.10;99.90;;;;;;5029400;28;20046;-69
2023/04/17 12:36:34;;;;;;;19.08;5.93;;;16.00;99.90;;;;;;5028808;28;20052;-68
2023/04/17 12:39:01;;;;;;;8.10;4.50;;;15.90;99.90;;;;;;5011038;28;20500;-68